ハバロフスク の空港の天気 - METARとTAF

ハバロフスク空港 ( UHHH / KHV ) - ロシア ハバロフスク
飛行場実況気象(Metar)
観測時間04/19 21:30 VLAT (04/19 11:30 UTC)
風向・風速西南西 3m/s
視程10km以上
天気現象
なし
気温12℃
湿度54%
気圧1008hPa
METARUHHH 191130Z 24003MPS CAVOK 12/03 Q1008 R23L/090060 NOSIG RMK QFE750/1000
過去の天気等 Google飛行場航空写真 Wunderground天気予報

過去48時間のMETAR

飛行場予報(TAF)
発表時間: 4/19 20:48 VLAT (4/19 10:48 UTC)
予報対象時間: 19日22時 VLAT ~ 21日4時 VLAT
風向・風速西南西 6m/s
視程10km以上
なし
20日4時 VLAT ~ 20日9時 VLAT に一時的に
風向・風速西 10m/s
全天の4割程度の雲 雲底高度 300m
20日9時 VLAT ~ 20日13時 VLAT に一時的に
風向・風速西 7m/s 瞬間風速 12m/s
全天の4割程度の積乱雲 雲底高度 610m
TAF UHHH 191048Z 1912/2018 24006MPS 9999 NSC
TEMPO 1918/1923 26010MPS SCT010
TEMPO 1923/2003 26007G12MPS SCT020CB